createdAt,value
2023-01-25T00:01:07.951Z,2.30
2023-01-25T00:03:35.673Z,2.30
2023-01-25T00:06:03.562Z,2.30
2023-01-25T00:08:31.258Z,2.30
2023-01-25T00:10:58.791Z,2.20
2023-01-25T00:13:27.195Z,2.20
2023-01-25T00:15:54.722Z,2.30
2023-01-25T00:18:22.431Z,2.30
2023-01-25T00:20:49.762Z,2.30
2023-01-25T00:23:19.496Z,2.20
2023-01-25T00:25:49.410Z,2.30
2023-01-25T00:28:16.632Z,2.20
2023-01-25T00:30:43.996Z,2.20
2023-01-25T00:33:16.698Z,2.20
2023-01-25T00:35:50.132Z,2.20
2023-01-25T00:38:35.702Z,2.20
2023-01-25T00:41:02.990Z,2.20
2023-01-25T00:43:30.270Z,2.20
2023-01-25T00:46:03.604Z,2.20
2023-01-25T00:48:31.131Z,2.20
2023-01-25T00:51:02.059Z,2.20
2023-01-25T00:53:29.457Z,2.20
2023-01-25T00:55:56.875Z,2.10
2023-01-25T00:58:25.236Z,2.20
2023-01-25T01:00:57.042Z,2.10
2023-01-25T01:03:24.862Z,2.20
2023-01-25T01:06:04.851Z,2.10
2023-01-25T01:08:34.659Z,2.10
2023-01-25T01:11:03.359Z,2.10
2023-01-25T01:13:31.073Z,2.10
2023-01-25T01:16:02.948Z,2.00
2023-01-25T01:18:35.198Z,2.00
2023-01-25T01:21:02.865Z,2.00
2023-01-25T01:23:31.133Z,2.00
2023-01-25T01:26:02.624Z,2.00
2023-01-25T01:28:31.189Z,2.00
2023-01-25T01:31:02.427Z,2.00
2023-01-25T01:33:35.316Z,1.90
2023-01-25T01:36:11.723Z,2.00
2023-01-25T01:38:39.161Z,2.00
2023-01-25T01:41:06.740Z,2.00
2023-01-25T01:43:34.668Z,2.00
2023-01-25T01:46:21.417Z,2.00
2023-01-25T01:49:11.046Z,2.00
2023-01-25T01:51:41.016Z,2.00
2023-01-25T01:54:39.205Z,2.00
2023-01-25T01:57:22.228Z,1.90
2023-01-25T01:59:55.351Z,1.90
2023-01-25T02:02:26.734Z,2.00
2023-01-25T02:04:58.347Z,2.00
2023-01-25T02:07:35.223Z,1.90
2023-01-25T02:10:06.062Z,1.90
2023-01-25T02:12:33.653Z,1.90
2023-01-25T02:15:00.968Z,1.90
2023-01-25T02:17:30.926Z,1.90
2023-01-25T02:20:03.978Z,2.00
2023-01-25T02:22:41.043Z,1.90
2023-01-25T02:25:14.471Z,1.90
2023-01-25T02:27:47.850Z,1.90
2023-01-25T02:30:15.408Z,1.90
2023-01-25T02:32:44.416Z,2.00
2023-01-25T02:35:37.151Z,2.00
2023-01-25T02:38:05.511Z,2.00
2023-01-25T02:40:39.773Z,1.90
2023-01-25T02:43:07.462Z,1.90
2023-01-25T02:45:35.279Z,2.00
2023-01-25T02:48:02.585Z,2.00
2023-01-25T02:50:30.739Z,2.00
2023-01-25T02:52:58.007Z,2.00
2023-01-25T02:55:25.371Z,1.90
2023-01-25T02:57:52.669Z,1.90
2023-01-25T03:00:21.333Z,1.90
2023-01-25T03:02:48.659Z,1.90
2023-01-25T03:05:15.957Z,1.90
2023-01-25T03:07:44.083Z,1.90
2023-01-25T03:10:11.506Z,1.90
2023-01-25T03:12:38.759Z,1.90
2023-01-25T03:15:07.189Z,1.90
2023-01-25T03:17:37.249Z,1.90
2023-01-25T03:20:06.318Z,1.90
2023-01-25T03:22:37.066Z,1.90
2023-01-25T03:25:04.714Z,1.80
2023-01-25T03:27:32.111Z,1.80
2023-01-25T03:30:17.641Z,1.80
2023-01-25T03:32:44.877Z,1.80
2023-01-25T03:35:16.108Z,1.80
2023-01-25T03:37:44.178Z,1.80
2023-01-25T03:40:11.953Z,1.80
2023-01-25T03:42:42.534Z,1.90
2023-01-25T03:45:14.425Z,1.90
2023-01-25T03:47:42.159Z,1.90
2023-01-25T03:50:10.723Z,1.90
2023-01-25T03:52:42.238Z,1.80
2023-01-25T03:55:10.274Z,1.90
2023-01-25T03:57:41.487Z,1.90
2023-01-25T04:00:12.970Z,1.80
2023-01-25T04:02:45.256Z,1.80
2023-01-25T04:05:16.406Z,1.80
2023-01-25T04:07:43.625Z,1.70
2023-01-25T04:10:11.452Z,1.80
2023-01-25T04:12:42.586Z,1.80
2023-01-25T04:15:11.057Z,1.80
2023-01-25T04:17:39.784Z,1.80
2023-01-25T04:20:16.294Z,1.80
2023-01-25T04:22:44.637Z,1.80
2023-01-25T04:25:12.244Z,1.80
2023-01-25T04:27:45.539Z,1.80
2023-01-25T04:30:15.997Z,1.90
2023-01-25T04:32:45.235Z,1.90
2023-01-25T04:35:21.313Z,1.90
2023-01-25T04:37:59.805Z,1.90
2023-01-25T04:40:34.705Z,1.90
2023-01-25T04:43:02.030Z,1.90
2023-01-25T04:45:30.812Z,1.90
2023-01-25T04:48:04.435Z,1.90
2023-01-25T04:50:33.220Z,2.00
2023-01-25T04:53:00.622Z,1.90
2023-01-25T04:55:32.129Z,1.90
2023-01-25T04:58:01.495Z,1.90
2023-01-25T05:00:29.801Z,1.90
2023-01-25T05:02:59.795Z,1.90
2023-01-25T05:05:27.144Z,1.80
2023-01-25T05:07:55.379Z,1.80
2023-01-25T05:10:23.372Z,1.80
2023-01-25T05:13:09.056Z,1.80
2023-01-25T05:15:36.384Z,1.80
2023-01-25T05:18:04.787Z,1.80
2023-01-25T05:20:33.456Z,1.80
2023-01-25T05:23:01.238Z,1.80
2023-01-25T05:25:49.353Z,1.70
2023-01-25T05:28:21.579Z,1.70
2023-01-25T05:31:11.270Z,1.70
2023-01-25T05:33:39.216Z,1.60
2023-01-25T05:36:06.767Z,1.60
2023-01-25T05:38:36.648Z,1.60
2023-01-25T05:41:04.118Z,1.60
2023-01-25T05:43:31.541Z,1.60
2023-01-25T05:45:58.976Z,1.70
2023-01-25T05:48:26.210Z,1.70
2023-01-25T05:50:57.227Z,1.70
2023-01-25T05:53:28.433Z,1.70
2023-01-25T05:55:55.834Z,1.70
2023-01-25T05:58:23.154Z,1.70
2023-01-25T06:00:50.382Z,1.70
2023-01-25T06:03:28.821Z,1.70
2023-01-25T06:05:57.738Z,1.70
2023-01-25T06:08:25.497Z,1.70
2023-01-25T06:10:54.291Z,1.70
2023-01-25T06:13:24.409Z,1.70
2023-01-25T06:15:56.253Z,1.70
2023-01-25T06:18:41.645Z,1.70
2023-01-25T06:21:15.418Z,1.70
2023-01-25T06:23:45.117Z,1.70
2023-01-25T06:26:14.526Z,1.70
2023-01-25T06:28:42.034Z,1.70
2023-01-25T06:31:14.623Z,1.70
2023-01-25T06:33:43.966Z,1.70
2023-01-25T06:36:14.620Z,1.70
2023-01-25T06:38:42.456Z,1.70
2023-01-25T06:41:12.129Z,1.70
2023-01-25T06:43:39.755Z,1.60
2023-01-25T06:46:09.814Z,1.60
2023-01-25T06:48:37.053Z,1.60
2023-01-25T06:51:07.468Z,1.60
2023-01-25T06:53:38.486Z,1.70
2023-01-25T06:56:10.756Z,1.70
2023-01-25T06:58:39.371Z,1.70
2023-01-25T07:01:16.081Z,1.70
2023-01-25T07:03:43.457Z,1.70
2023-01-25T07:06:11.735Z,1.60
2023-01-25T07:08:39.867Z,1.60
2023-01-25T07:11:12.206Z,1.60
2023-01-25T07:13:40.959Z,1.60
2023-01-25T07:16:11.902Z,1.70
2023-01-25T07:18:39.216Z,1.70
2023-01-25T07:21:09.079Z,1.70
2023-01-25T07:23:38.070Z,1.60
2023-01-25T07:26:06.819Z,1.60
2023-01-25T07:28:34.101Z,1.60
2023-01-25T07:31:08.236Z,1.60
2023-01-25T07:33:35.648Z,1.60
2023-01-25T07:36:05.275Z,1.70
2023-01-25T07:38:32.476Z,1.60
2023-01-25T07:40:59.809Z,1.60
2023-01-25T07:43:27.292Z,1.60
2023-01-25T07:46:00.041Z,1.70
2023-01-25T07:48:27.285Z,1.70
2023-01-25T07:51:17.333Z,1.60
2023-01-25T07:53:44.677Z,1.60
2023-01-25T07:56:12.822Z,1.60
2023-01-25T07:58:40.480Z,1.60
2023-01-25T08:01:08.961Z,1.50
2023-01-25T08:03:37.369Z,1.60
2023-01-25T08:06:07.618Z,1.60
2023-01-25T08:08:40.669Z,1.60
2023-01-25T08:11:17.694Z,1.60
2023-01-25T08:13:47.674Z,1.60
2023-01-25T08:16:16.501Z,1.60
2023-01-25T08:18:44.219Z,1.60
2023-01-25T08:21:12.274Z,1.70
2023-01-25T08:23:39.570Z,1.70
2023-01-25T08:26:09.380Z,1.70
2023-01-25T08:28:36.857Z,1.70
2023-01-25T08:31:14.450Z,1.70
2023-01-25T08:33:42.694Z,1.70
2023-01-25T08:36:10.885Z,1.70
2023-01-25T08:38:39.355Z,1.80
2023-01-25T08:41:07.977Z,1.80
2023-01-25T08:43:35.735Z,1.80
2023-01-25T08:46:03.471Z,1.70
2023-01-25T08:48:31.024Z,1.60
2023-01-25T08:50:58.881Z,1.70
2023-01-25T08:53:28.811Z,1.70
2023-01-25T08:55:56.134Z,1.60
2023-01-25T08:58:23.346Z,1.60
2023-01-25T09:00:50.639Z,1.70
2023-01-25T09:03:18.332Z,1.70
2023-01-25T09:05:45.673Z,1.70
2023-01-25T09:08:12.935Z,1.70
2023-01-25T09:10:40.186Z,1.70
2023-01-25T09:13:08.726Z,1.80
2023-01-25T09:15:36.328Z,1.80
2023-01-25T09:18:03.530Z,1.90
2023-01-25T09:20:34.213Z,1.90
2023-01-25T09:23:01.992Z,1.90
2023-01-25T09:25:29.159Z,1.90
2023-01-25T09:27:56.487Z,1.90
2023-01-25T09:30:33.916Z,1.90
2023-01-25T09:33:06.077Z,1.90
2023-01-25T09:35:34.303Z,1.90
2023-01-25T09:38:01.689Z,2.00
2023-01-25T09:40:35.388Z,2.00
2023-01-25T09:43:11.247Z,1.90
2023-01-25T09:45:38.478Z,2.00
2023-01-25T09:48:40.321Z,2.00
2023-01-25T09:51:19.669Z,2.10
2023-01-25T09:53:51.795Z,2.20
2023-01-25T09:56:27.615Z,2.20
2023-01-25T09:58:59.433Z,2.10
2023-01-25T10:01:38.593Z,2.10
2023-01-25T10:04:16.878Z,2.10
2023-01-25T10:06:59.638Z,2.10
2023-01-25T10:09:41.208Z,2.00
2023-01-25T10:12:21.645Z,2.00
2023-01-25T10:14:49.366Z,1.90
2023-01-25T10:17:38.466Z,1.90
2023-01-25T10:20:29.200Z,1.90
2023-01-25T10:23:07.759Z,2.00
2023-01-25T10:26:00.128Z,1.90
2023-01-25T10:28:39.940Z,1.80
2023-01-25T10:31:29.440Z,1.80
2023-01-25T10:33:57.719Z,1.90
2023-01-25T10:36:31.144Z,1.90
2023-01-25T10:39:01.148Z,1.90
2023-01-25T10:41:39.228Z,2.00
2023-01-25T10:44:25.093Z,2.00
2023-01-25T10:46:57.937Z,2.10
2023-01-25T10:49:41.016Z,2.10
2023-01-25T10:52:14.120Z,2.20
2023-01-25T10:54:41.745Z,2.10
2023-01-25T10:57:12.603Z,2.10
2023-01-25T10:59:40.062Z,2.20
2023-01-25T11:02:26.249Z,2.20
2023-01-25T11:04:53.516Z,2.20
2023-01-25T11:07:29.198Z,2.20
2023-01-25T11:09:56.696Z,2.30
2023-01-25T11:12:23.906Z,2.30
2023-01-25T11:14:51.344Z,2.30
2023-01-25T11:17:32.030Z,2.30
2023-01-25T11:20:21.689Z,2.30
2023-01-25T11:22:57.196Z,2.30
2023-01-25T11:25:31.225Z,2.30
2023-01-25T11:28:30.969Z,2.30
2023-01-25T11:30:58.258Z,2.30
2023-01-25T11:33:26.897Z,2.30
2023-01-25T11:36:19.998Z,2.40
2023-01-25T11:39:05.803Z,2.40
2023-01-25T11:41:35.911Z,2.40
2023-01-25T11:44:27.039Z,2.40
2023-01-25T11:46:57.117Z,2.40
2023-01-25T11:49:49.894Z,2.50
2023-01-25T11:52:33.448Z,2.40
2023-01-25T11:55:38.562Z,2.30
2023-01-25T11:58:17.712Z,2.40
2023-01-25T12:00:53.350Z,2.40
2023-01-25T12:03:39.464Z,2.30
2023-01-25T12:06:21.280Z,2.40
2023-01-25T12:09:03.654Z,2.40
2023-01-25T12:11:55.631Z,2.40
2023-01-25T12:14:37.785Z,2.30
2023-01-25T12:17:07.934Z,2.40
2023-01-25T12:19:38.228Z,2.50
2023-01-25T12:22:17.494Z,2.40
2023-01-25T12:25:08.492Z,2.40
2023-01-25T12:27:49.775Z,2.40
2023-01-25T12:31:02.354Z,2.40
2023-01-25T12:33:34.048Z,2.40
2023-01-25T12:36:19.953Z,2.50
2023-01-25T12:39:04.508Z,2.40
2023-01-25T12:41:52.099Z,2.30
2023-01-25T12:44:40.162Z,2.40
2023-01-25T12:47:29.395Z,2.40
2023-01-25T12:50:15.373Z,2.30
2023-01-25T12:53:20.669Z,2.30
2023-01-25T12:55:48.917Z,2.20
2023-01-25T12:58:38.073Z,2.30
2023-01-25T13:01:20.631Z,2.30
2023-01-25T13:03:59.867Z,2.20
2023-01-25T13:06:42.301Z,2.30
2023-01-25T13:09:18.423Z,2.30
2023-01-25T13:11:47.718Z,2.30
2023-01-25T13:14:18.140Z,2.30
2023-01-25T13:17:09.075Z,2.40
2023-01-25T13:19:41.989Z,2.40
2023-01-25T13:22:13.593Z,2.50
2023-01-25T13:25:03.057Z,2.40
2023-01-25T13:27:34.813Z,2.30
2023-01-25T13:30:16.219Z,2.30
2023-01-25T13:32:55.614Z,2.30
2023-01-25T13:35:39.457Z,2.30
2023-01-25T13:38:11.698Z,2.30
2023-01-25T13:40:40.218Z,2.40
2023-01-25T13:43:18.566Z,2.40
2023-01-25T13:45:49.840Z,2.30
2023-01-25T13:48:22.935Z,2.20
2023-01-25T13:50:57.952Z,2.30
2023-01-25T13:53:29.608Z,2.30
2023-01-25T13:55:58.484Z,2.20
2023-01-25T13:58:32.537Z,2.20
2023-01-25T14:01:07.029Z,2.20
2023-01-25T14:03:49.230Z,2.30
2023-01-25T14:06:25.580Z,2.20
2023-01-25T14:08:55.536Z,2.20
2023-01-25T14:11:29.275Z,2.20
2023-01-25T14:14:16.504Z,2.20
2023-01-25T14:16:43.991Z,2.20
2023-01-25T14:19:31.426Z,2.30
2023-01-25T14:22:25.156Z,2.20
2023-01-25T14:25:02.359Z,2.20
2023-01-25T14:27:29.801Z,2.20
2023-01-25T14:29:57.208Z,2.20
2023-01-25T14:32:27.323Z,2.30
2023-01-25T14:34:54.751Z,2.30
2023-01-25T14:37:22.718Z,2.20
2023-01-25T14:39:51.896Z,2.20
2023-01-25T14:42:20.087Z,2.20
2023-01-25T14:44:47.746Z,2.20
2023-01-25T14:47:33.667Z,2.10
2023-01-25T14:50:32.877Z,2.00
2023-01-25T14:53:20.965Z,2.10
2023-01-25T14:55:49.859Z,1.90
2023-01-25T14:58:25.318Z,1.90
2023-01-25T15:00:58.898Z,1.90
2023-01-25T15:03:27.532Z,1.90
2023-01-25T15:05:56.259Z,1.90
2023-01-25T15:08:36.154Z,1.80
2023-01-25T15:11:21.791Z,1.70
2023-01-25T15:13:49.210Z,1.80
2023-01-25T15:16:16.756Z,1.80
2023-01-25T15:18:53.758Z,1.80
2023-01-25T15:21:29.600Z,1.80
2023-01-25T15:23:59.311Z,1.80
2023-01-25T15:26:32.386Z,1.70
2023-01-25T15:29:02.339Z,1.60
2023-01-25T15:31:32.746Z,1.70
2023-01-25T15:34:01.755Z,1.70
2023-01-25T15:36:30.503Z,1.60
2023-01-25T15:38:58.011Z,1.50
2023-01-25T15:41:25.335Z,1.50
2023-01-25T15:43:52.683Z,1.40
2023-01-25T15:46:26.542Z,1.40
2023-01-25T15:48:55.695Z,1.30
2023-01-25T15:51:23.883Z,1.20
2023-01-25T15:53:51.186Z,1.20
2023-01-25T15:56:32.616Z,1.20
2023-01-25T15:59:05.525Z,1.30
2023-01-25T16:01:33.210Z,1.40
2023-01-25T16:04:00.908Z,1.40
2023-01-25T16:06:41.910Z,1.40
2023-01-25T16:09:24.410Z,1.40
2023-01-25T16:11:53.714Z,1.50
2023-01-25T16:14:23.713Z,1.40
2023-01-25T16:16:53.088Z,1.30
2023-01-25T16:19:22.445Z,1.30
2023-01-25T16:21:50.648Z,1.20
2023-01-25T16:24:18.932Z,1.20
2023-01-25T16:26:51.788Z,1.30
2023-01-25T16:29:19.171Z,1.30
2023-01-25T16:31:46.699Z,1.30
2023-01-25T16:34:14.072Z,1.30
2023-01-25T16:36:41.604Z,1.30
2023-01-25T16:39:15.246Z,1.30
2023-01-25T16:41:42.537Z,1.30
2023-01-25T16:44:09.786Z,1.30
2023-01-25T16:46:37.078Z,1.30
2023-01-25T16:49:06.959Z,1.30
2023-01-25T16:51:34.600Z,1.20
2023-01-25T16:54:02.123Z,1.20
2023-01-25T16:56:32.293Z,1.20
2023-01-25T16:59:04.795Z,1.20
2023-01-25T17:01:32.735Z,1.20
2023-01-25T17:04:00.085Z,1.30
2023-01-25T17:06:30.450Z,1.30
2023-01-25T17:09:09.372Z,1.30
2023-01-25T17:11:40.730Z,1.40
2023-01-25T17:14:09.339Z,1.40
2023-01-25T17:16:37.517Z,1.40
2023-01-25T17:19:07.320Z,1.40
2023-01-25T17:21:35.161Z,1.40
2023-01-25T17:24:03.366Z,1.40
2023-01-25T17:26:32.347Z,1.40
2023-01-25T17:29:04.734Z,1.40
2023-01-25T17:31:34.416Z,1.50
2023-01-25T17:34:04.223Z,1.50
2023-01-25T17:36:32.264Z,1.40
2023-01-25T17:39:05.232Z,1.40
2023-01-25T17:41:33.191Z,1.40
2023-01-25T17:44:00.738Z,1.40
2023-01-25T17:46:35.128Z,1.40
2023-01-25T17:49:05.095Z,1.40
2023-01-25T17:51:36.801Z,1.50
2023-01-25T17:54:05.411Z,1.40
2023-01-25T17:56:33.036Z,1.40
2023-01-25T17:59:02.064Z,1.40
2023-01-25T18:01:32.208Z,1.40
2023-01-25T18:04:01.027Z,1.40
2023-01-25T18:06:32.264Z,1.40
2023-01-25T18:09:02.267Z,1.40
2023-01-25T18:11:33.194Z,1.30
2023-01-25T18:14:03.783Z,1.30
2023-01-25T18:16:32.280Z,1.30
2023-01-25T18:19:00.716Z,1.20
2023-01-25T18:21:33.345Z,1.20
2023-01-25T18:24:23.251Z,1.20
2023-01-25T18:26:51.357Z,1.20
2023-01-25T18:29:18.727Z,1.20
2023-01-25T18:31:46.024Z,1.20
2023-01-25T18:34:13.649Z,1.20
2023-01-25T18:36:41.365Z,1.20
2023-01-25T18:39:11.484Z,1.20
2023-01-25T18:41:39.329Z,1.20
2023-01-25T18:44:06.782Z,1.20
2023-01-25T18:46:34.470Z,1.20
2023-01-25T18:49:01.999Z,1.20
2023-01-25T18:51:29.587Z,1.20
2023-01-25T18:53:56.839Z,1.10
2023-01-25T18:56:24.288Z,1.10
2023-01-25T18:58:52.435Z,1.20
2023-01-25T19:01:22.140Z,1.20
2023-01-25T19:03:50.789Z,1.20
2023-01-25T19:06:19.850Z,1.20
2023-01-25T19:08:51.934Z,1.20
2023-01-25T19:11:21.093Z,1.20
2023-01-25T19:13:48.614Z,1.20
2023-01-25T19:16:19.690Z,1.20
2023-01-25T19:18:50.217Z,1.20
2023-01-25T19:21:18.820Z,1.20
2023-01-25T19:23:46.239Z,1.20
2023-01-25T19:26:16.306Z,1.20
2023-01-25T19:28:44.338Z,1.20
2023-01-25T19:31:20.700Z,1.20
2023-01-25T19:33:49.272Z,1.20
2023-01-25T19:36:19.235Z,1.20
2023-01-25T19:38:47.727Z,1.30
2023-01-25T19:41:26.531Z,1.30
2023-01-25T19:43:58.262Z,1.30
2023-01-25T19:46:28.107Z,1.30
2023-01-25T19:48:55.780Z,1.30
2023-01-25T19:51:35.434Z,1.30
2023-01-25T19:54:11.682Z,1.30
2023-01-25T19:56:41.019Z,1.30
2023-01-25T19:59:12.780Z,1.30
2023-01-25T20:01:44.860Z,1.40
2023-01-25T20:04:20.976Z,1.30
2023-01-25T20:06:50.432Z,1.30
2023-01-25T20:09:20.157Z,1.30
2023-01-25T20:11:47.723Z,1.30
2023-01-25T20:14:15.043Z,1.30
2023-01-25T20:16:42.522Z,1.30
2023-01-25T20:19:12.113Z,1.30
2023-01-25T20:21:39.964Z,1.30
2023-01-25T20:24:09.976Z,1.30
2023-01-25T20:26:39.488Z,1.30
2023-01-25T20:29:07.736Z,1.20
2023-01-25T20:31:37.708Z,1.20
2023-01-25T20:34:10.004Z,1.30
2023-01-25T20:36:37.340Z,1.30
2023-01-25T20:39:06.597Z,1.30
2023-01-25T20:41:34.868Z,1.20
2023-01-25T20:44:11.383Z,1.30
2023-01-25T20:46:40.864Z,1.30
2023-01-25T20:49:13.308Z,1.30
2023-01-25T20:51:40.519Z,1.30
2023-01-25T20:54:07.718Z,1.20
2023-01-25T20:56:36.072Z,1.20
2023-01-25T20:59:03.677Z,1.20
2023-01-25T21:01:36.939Z,1.30
2023-01-25T21:04:06.643Z,1.30
2023-01-25T21:06:35.421Z,1.20
2023-01-25T21:09:03.832Z,1.30
2023-01-25T21:11:31.398Z,1.20
2023-01-25T21:13:59.704Z,1.20
2023-01-25T21:16:27.580Z,1.20
2023-01-25T21:19:00.436Z,1.20
2023-01-25T21:21:30.139Z,1.20
2023-01-25T21:24:00.203Z,1.20
2023-01-25T21:26:32.907Z,1.20
2023-01-25T21:29:02.049Z,1.20
2023-01-25T21:31:38.049Z,1.20
2023-01-25T21:34:06.479Z,1.20
2023-01-25T21:36:33.882Z,1.20
2023-01-25T21:39:01.333Z,1.20
2023-01-25T21:41:30.918Z,1.20
2023-01-25T21:44:17.562Z,1.20
2023-01-25T21:47:04.200Z,1.20
2023-01-25T21:49:51.965Z,1.10
2023-01-25T21:52:19.317Z,1.20
2023-01-25T21:54:46.545Z,1.10
2023-01-25T21:57:13.773Z,1.20
2023-01-25T21:59:41.113Z,1.20
2023-01-25T22:02:13.330Z,1.20
2023-01-25T22:04:40.582Z,1.20
2023-01-25T22:07:09.148Z,1.20
2023-01-25T22:09:36.519Z,1.10
2023-01-25T22:12:04.145Z,1.10
2023-01-25T22:14:31.355Z,1.10
2023-01-25T22:16:58.623Z,1.10
2023-01-25T22:19:26.316Z,1.10
2023-01-25T22:21:53.687Z,1.20
2023-01-25T22:24:21.192Z,1.20
2023-01-25T22:27:22.456Z,1.20
2023-01-25T22:29:49.703Z,1.10
2023-01-25T22:32:17.030Z,1.00
2023-01-25T22:34:44.306Z,1.00
2023-01-25T22:37:12.202Z,1.00
2023-01-25T22:39:39.437Z,1.00
2023-01-25T22:42:06.695Z,1.00
2023-01-25T22:44:33.930Z,0.80
2023-01-25T22:47:01.117Z,0.80
2023-01-25T22:49:28.386Z,0.90
2023-01-25T22:51:55.588Z,0.90
2023-01-25T22:54:22.897Z,0.90
2023-01-25T22:56:50.171Z,0.90
2023-01-25T22:59:19.176Z,0.90
2023-01-25T23:01:46.727Z,1.00
2023-01-25T23:04:14.022Z,1.00
2023-01-25T23:06:41.433Z,1.00
2023-01-25T23:09:08.755Z,0.90
2023-01-25T23:11:37.759Z,1.00
2023-01-25T23:14:30.743Z,0.90
2023-01-25T23:17:17.945Z,0.90
2023-01-25T23:19:45.311Z,0.90
2023-01-25T23:22:12.816Z,0.80
2023-01-25T23:24:40.126Z,0.80
2023-01-25T23:27:07.552Z,0.80
2023-01-25T23:29:34.748Z,0.70
2023-01-25T23:32:02.150Z,0.80
2023-01-25T23:34:34.762Z,0.70
2023-01-25T23:37:02.038Z,0.70
2023-01-25T23:39:29.472Z,0.70
2023-01-25T23:41:56.742Z,0.60
2023-01-25T23:44:24.022Z,0.70
2023-01-25T23:46:51.493Z,0.70
2023-01-25T23:49:18.840Z,0.70
2023-01-25T23:51:46.083Z,0.70
2023-01-25T23:54:13.393Z,0.80
2023-01-25T23:56:40.843Z,0.80
2023-01-25T23:59:08.405Z,0.90
